createdAt,value
2018-12-05T00:01:40.937Z,136.43
2018-12-05T00:04:19.135Z,138.20
2018-12-05T00:06:57.556Z,131.17
2018-12-05T00:09:33.743Z,136.03
2018-12-05T00:12:10.264Z,130.37
2018-12-05T00:14:51.004Z,147.67
2018-12-05T00:17:29.023Z,149.13
2018-12-05T00:20:05.827Z,143.73
2018-12-05T00:22:44.550Z,144.80
2018-12-05T00:25:21.289Z,141.63
2018-12-05T00:27:59.235Z,148.67
2018-12-05T00:30:36.748Z,137.90
2018-12-05T00:33:13.859Z,143.63
2018-12-05T00:35:51.307Z,150.87
2018-12-05T00:38:28.627Z,162.17
2018-12-05T00:41:06.760Z,154.07
2018-12-05T00:43:43.723Z,161.53
2018-12-05T00:46:20.553Z,145.63
2018-12-05T00:48:58.529Z,152.00
2018-12-05T00:51:35.503Z,167.73
2018-12-05T00:54:12.004Z,139.70
2018-12-05T00:56:49.810Z,136.20
2018-12-05T00:59:27.377Z,150.00
2018-12-05T01:02:03.723Z,143.40
2018-12-05T01:04:41.790Z,149.97
2018-12-05T01:07:18.693Z,140.60
2018-12-05T01:09:56.713Z,147.57
2018-12-05T01:12:32.935Z,128.87
2018-12-05T01:15:09.777Z,128.33
2018-12-05T01:17:46.638Z,147.80
2018-12-05T01:20:23.866Z,138.80
2018-12-05T01:23:00.640Z,144.93
2018-12-05T01:25:37.214Z,138.77
2018-12-05T01:28:13.665Z,134.70
2018-12-05T01:30:50.164Z,158.57
2018-12-05T01:33:26.949Z,130.40
2018-12-05T01:36:05.356Z,138.47
2018-12-05T01:38:42.827Z,136.97
2018-12-05T01:41:20.475Z,158.77
2018-12-05T01:43:56.886Z,153.53
2018-12-05T01:46:33.445Z,147.93
2018-12-05T01:49:10.575Z,163.13
2018-12-05T01:51:47.280Z,166.27
2018-12-05T01:54:29.400Z,154.73
2018-12-05T01:57:07.938Z,162.40
2018-12-05T01:59:45.435Z,156.43
2018-12-05T02:02:21.128Z,136.73
2018-12-05T02:04:57.797Z,130.27
2018-12-05T02:07:34.216Z,119.57
2018-12-05T02:10:11.329Z,127.97
2018-12-05T02:12:47.407Z,114.13
2018-12-05T02:15:24.903Z,125.33
2018-12-05T02:18:02.314Z,132.67
2018-12-05T02:20:38.859Z,131.80
2018-12-05T02:23:14.692Z,159.20
2018-12-05T02:25:51.139Z,150.47
2018-12-05T02:28:28.600Z,130.67
2018-12-05T02:31:05.674Z,146.73
2018-12-05T02:33:43.247Z,148.30
2018-12-05T02:36:19.230Z,127.73
2018-12-05T02:38:56.741Z,164.60
2018-12-05T02:41:36.147Z,133.63
2018-12-05T02:44:12.583Z,161.77
2018-12-05T02:46:50.575Z,221.37
2018-12-05T02:49:28.232Z,236.27
2018-12-05T02:52:04.124Z,189.67
2018-12-05T02:54:40.676Z,317.00
2018-12-05T02:57:18.689Z,339.53
2018-12-05T02:59:56.401Z,321.13
2018-12-05T03:05:19.693Z,167.33
2018-12-05T03:07:56.436Z,134.67
2018-12-05T03:10:32.948Z,151.37
2018-12-05T03:13:11.050Z,155.60
2018-12-05T03:18:44.925Z,156.67
2018-12-05T03:21:22.403Z,143.80
2018-12-05T03:24:00.892Z,242.13
2018-12-05T03:26:38.246Z,194.53
2018-12-05T03:29:15.315Z,200.13
2018-12-05T03:31:51.618Z,319.93
2018-12-05T03:34:29.591Z,193.20
2018-12-05T03:37:06.411Z,169.23
2018-12-05T03:39:46.672Z,137.60
2018-12-05T03:42:36.352Z,158.77
2018-12-05T03:45:15.559Z,162.00
2018-12-05T03:47:52.428Z,218.57
2018-12-05T03:50:29.975Z,292.03
2018-12-05T03:53:07.946Z,204.37
2018-12-05T03:55:46.041Z,398.80
2018-12-05T03:58:25.869Z,442.37
2018-12-05T04:01:04.237Z,462.87
2018-12-05T04:03:42.406Z,356.80
2018-12-05T04:06:21.629Z,447.30
2018-12-05T04:08:58.838Z,415.90
2018-12-05T04:11:36.852Z,453.97
2018-12-05T04:14:14.077Z,496.23
2018-12-05T04:16:51.809Z,384.57
2018-12-05T04:19:34.800Z,572.93
2018-12-05T04:22:12.164Z,551.63
2018-12-05T04:24:48.541Z,261.13
2018-12-05T04:27:30.309Z,829.67
2018-12-05T04:30:11.724Z,255.00
2018-12-05T04:32:52.070Z,385.67
2018-12-05T04:35:35.682Z,190.73
2018-12-05T04:38:16.487Z,254.83
2018-12-05T04:40:53.861Z,145.30
2018-12-05T04:43:34.330Z,225.77
2018-12-05T04:46:11.109Z,87.33
2018-12-05T04:48:50.818Z,230.93
2018-12-05T04:51:28.734Z,170.67
2018-12-05T04:54:05.673Z,138.53
2018-12-05T05:03:44.830Z,83.53
2018-12-05T05:06:22.377Z,131.00
2018-12-05T05:09:00.498Z,149.40
2018-12-05T05:11:43.482Z,48.47
2018-12-05T05:14:22.156Z,59.30
2018-12-05T05:16:59.095Z,45.03
2018-12-05T05:19:36.175Z,42.10
2018-12-05T05:22:14.020Z,26.43
2018-12-05T05:24:52.526Z,30.67
2018-12-05T05:27:30.980Z,22.43
2018-12-05T05:31:36.220Z,63.10
2018-12-05T05:34:15.513Z,25.93
2018-12-05T05:36:53.483Z,29.93
2018-12-05T05:39:31.584Z,56.17
2018-12-05T05:42:08.910Z,98.50
2018-12-05T05:44:46.816Z,73.70
2018-12-05T05:47:26.405Z,30.97
2018-12-05T05:50:07.566Z,28.57
2018-12-05T05:52:45.140Z,48.40
2018-12-05T05:55:22.927Z,90.00
2018-12-05T05:58:01.667Z,53.37
2018-12-05T06:00:38.137Z,25.07
2018-12-05T06:03:14.566Z,64.57
2018-12-05T06:05:55.135Z,39.13
2018-12-05T06:08:32.019Z,44.70
2018-12-05T06:11:15.659Z,29.67
2018-12-05T06:13:54.368Z,32.03
2018-12-05T06:16:31.321Z,38.17
2018-12-05T06:19:10.880Z,47.83
2018-12-05T06:21:47.920Z,148.03
2018-12-05T06:24:28.220Z,126.57
2018-12-05T06:27:06.324Z,34.17
2018-12-05T06:29:43.167Z,85.63
2018-12-05T06:32:20.504Z,95.03
2018-12-05T06:34:59.568Z,38.93
2018-12-05T06:37:38.172Z,59.40
2018-12-05T06:40:19.025Z,61.70
2018-12-05T06:42:57.569Z,58.30
2018-12-05T06:45:34.923Z,48.93
2018-12-05T06:48:12.999Z,51.80
2018-12-05T06:50:50.723Z,22.77
2018-12-05T06:53:28.600Z,26.57
2018-12-05T06:56:06.693Z,61.33
2018-12-05T06:58:46.537Z,33.17
2018-12-05T07:01:24.700Z,25.57
2018-12-05T07:04:01.590Z,25.57
2018-12-05T07:06:40.537Z,37.30
2018-12-05T07:09:18.135Z,21.23
2018-12-05T07:12:04.713Z,47.10
2018-12-05T07:14:42.557Z,18.47
2018-12-05T07:17:21.317Z,26.63
2018-12-05T07:20:00.226Z,24.90
2018-12-05T07:22:39.488Z,24.23
2018-12-05T07:25:17.829Z,37.37
2018-12-05T07:27:56.558Z,26.33
2018-12-05T07:30:40.304Z,37.80
2018-12-05T07:33:21.801Z,33.93
2018-12-05T07:36:02.172Z,24.00
2018-12-05T07:38:52.365Z,29.67
2018-12-05T07:41:33.085Z,23.80
2018-12-05T07:44:13.497Z,29.27
2018-12-05T07:46:51.391Z,31.20
2018-12-05T07:52:14.053Z,32.80
2018-12-05T07:54:56.433Z,25.30
2018-12-05T07:57:33.936Z,38.90
2018-12-05T08:00:11.452Z,31.27
2018-12-05T08:02:51.804Z,34.27
2018-12-05T08:05:35.470Z,36.37
2018-12-05T08:08:18.889Z,34.87
2018-12-05T08:10:59.168Z,30.80
2018-12-05T08:13:36.712Z,28.07
2018-12-05T08:16:14.878Z,33.23
2018-12-05T08:18:59.774Z,31.17
2018-12-05T08:21:37.548Z,39.23
2018-12-05T08:24:16.440Z,44.03
2018-12-05T08:26:57.011Z,39.80
2018-12-05T08:29:37.547Z,30.63
2018-12-05T08:32:14.644Z,64.97
2018-12-05T08:34:55.696Z,44.53
2018-12-05T08:37:36.413Z,28.07
2018-12-05T08:40:15.595Z,62.50
2018-12-05T08:42:56.126Z,47.10
2018-12-05T08:45:33.840Z,57.17
2018-12-05T08:48:11.222Z,45.23
2018-12-05T08:50:51.113Z,40.03
2018-12-05T08:53:29.267Z,39.60
2018-12-05T08:56:06.660Z,41.37
2018-12-05T08:58:53.208Z,64.60
2018-12-05T09:01:29.527Z,55.10
2018-12-05T09:04:08.061Z,48.27
2018-12-05T09:06:46.103Z,48.90
2018-12-05T09:09:26.008Z,35.77
2018-12-05T09:12:02.805Z,35.50
2018-12-05T09:14:40.566Z,62.47
2018-12-05T09:17:17.709Z,45.17
2018-12-05T09:19:56.784Z,43.57
2018-12-05T09:22:40.919Z,121.73
2018-12-05T09:25:14.246Z,46.73
2018-12-05T09:27:54.297Z,38.07
2018-12-05T09:30:31.558Z,42.57
2018-12-05T09:33:10.577Z,42.80
2018-12-05T09:35:49.107Z,39.90
2018-12-05T09:38:28.267Z,35.73
2018-12-05T09:41:08.186Z,34.60
2018-12-05T09:43:44.628Z,33.37
2018-12-05T09:46:21.539Z,43.37
2018-12-05T09:48:57.989Z,45.53
2018-12-05T09:51:34.282Z,50.80
2018-12-05T09:54:11.865Z,43.13
2018-12-05T09:56:52.729Z,33.13
2018-12-05T09:59:38.524Z,55.47
2018-12-05T10:02:22.209Z,48.87
2018-12-05T10:07:50.200Z,146.83
2018-12-05T10:10:30.732Z,68.63
2018-12-05T10:13:11.096Z,60.20
2018-12-05T10:15:47.720Z,63.13
2018-12-05T10:18:26.943Z,61.20
2018-12-05T10:21:08.162Z,55.20
2018-12-05T10:23:46.182Z,158.80
2018-12-05T10:26:30.114Z,81.27
2018-12-05T10:29:08.873Z,83.07
2018-12-05T10:31:46.609Z,74.23
2018-12-05T10:34:24.800Z,86.00
2018-12-05T10:37:03.124Z,56.90
2018-12-05T10:39:40.480Z,398.60
2018-12-05T10:42:18.094Z,158.23
2018-12-05T10:44:57.686Z,173.43
2018-12-05T10:47:35.164Z,89.33
2018-12-05T10:50:15.390Z,148.03
2018-12-05T10:52:53.467Z,76.93
2018-12-05T10:55:31.098Z,86.13
2018-12-05T10:58:08.763Z,74.10
2018-12-05T11:00:50.003Z,75.93
2018-12-05T11:03:30.136Z,140.83
2018-12-05T11:06:12.867Z,86.73
2018-12-05T11:08:56.538Z,137.40
2018-12-05T11:11:38.287Z,139.60
2018-12-05T11:14:23.567Z,75.53
2018-12-05T11:17:11.171Z,59.00
2018-12-05T11:19:53.232Z,51.20
2018-12-05T11:22:33.162Z,46.53
2018-12-05T11:25:16.700Z,239.27
2018-12-05T11:27:55.571Z,127.20
2018-12-05T11:30:33.245Z,81.77
2018-12-05T11:33:13.414Z,61.97
2018-12-05T11:35:53.933Z,50.27
2018-12-05T11:38:32.547Z,50.60
2018-12-05T11:41:17.293Z,79.37
2018-12-05T11:43:59.752Z,72.70
2018-12-05T11:46:38.427Z,136.70
2018-12-05T11:49:17.025Z,91.20
2018-12-05T11:51:56.982Z,79.33
2018-12-05T11:54:39.421Z,65.17
2018-12-05T11:57:20.189Z,96.63
2018-12-05T12:00:02.584Z,70.50
2018-12-05T12:02:40.618Z,70.00
2018-12-05T12:05:27.218Z,61.90
2018-12-05T12:08:12.689Z,57.73
2018-12-05T12:11:00.725Z,51.60
2018-12-05T12:13:41.826Z,65.83
2018-12-05T12:16:24.693Z,66.57
2018-12-05T12:19:05.455Z,56.00
2018-12-05T12:21:50.357Z,49.10
2018-12-05T12:24:36.652Z,64.10
2018-12-05T12:27:15.644Z,62.70
2018-12-05T12:30:01.492Z,70.33
2018-12-05T12:32:46.647Z,85.50
2018-12-05T12:35:24.235Z,71.23
2018-12-05T12:38:03.720Z,79.23
2018-12-05T12:40:45.037Z,71.00
2018-12-05T12:43:23.440Z,112.70
2018-12-05T12:46:03.912Z,72.07
2018-12-05T12:48:44.556Z,79.30
2018-12-05T12:51:25.973Z,97.80
2018-12-05T12:56:50.888Z,116.80
2018-12-05T12:59:29.131Z,86.10
2018-12-05T13:02:10.925Z,68.40
2018-12-05T13:04:55.544Z,51.80
2018-12-05T13:07:35.346Z,59.73
2018-12-05T13:10:12.658Z,59.07
2018-12-05T13:12:54.071Z,68.87
2018-12-05T13:15:31.375Z,66.70
2018-12-05T13:18:12.275Z,46.20
2018-12-05T13:20:59.367Z,59.53
2018-12-05T13:23:44.233Z,73.60
2018-12-05T13:29:19.234Z,52.67
2018-12-05T13:32:07.432Z,57.40
2018-12-05T13:40:44.960Z,55.17
2018-12-05T13:43:34.944Z,64.33
2018-12-05T13:46:21.014Z,59.43
2018-12-05T13:49:09.658Z,76.20
2018-12-05T13:51:50.296Z,56.63
2018-12-05T13:54:34.979Z,57.63
2018-12-05T13:57:16.337Z,55.07
2018-12-05T14:00:04.340Z,59.43
2018-12-05T14:02:48.863Z,121.80
2018-12-05T14:05:27.451Z,48.00
2018-12-05T14:08:13.801Z,48.23
2018-12-05T14:11:01.584Z,54.63
2018-12-05T14:13:49.237Z,51.33
2018-12-05T14:16:35.212Z,56.67
2018-12-05T14:19:21.573Z,48.10
2018-12-05T14:22:05.347Z,48.53
2018-12-05T14:24:49.544Z,52.77
2018-12-05T14:27:42.328Z,48.63
2018-12-05T14:30:42.037Z,59.93
2018-12-05T14:33:35.356Z,70.53
2018-12-05T14:36:28.913Z,105.37
2018-12-05T14:56:12.160Z,61.50
2018-12-05T14:58:57.399Z,48.40
2018-12-05T15:01:38.283Z,44.47
2018-12-05T15:04:22.650Z,45.87
2018-12-05T15:07:04.319Z,48.87
2018-12-05T15:09:50.029Z,54.10
2018-12-05T15:12:34.869Z,50.13
2018-12-05T15:15:16.857Z,44.67
2018-12-05T15:18:05.248Z,51.50
2018-12-05T15:20:56.870Z,48.60
2018-12-05T15:23:40.513Z,55.83
2018-12-05T15:29:14.745Z,47.90
2018-12-05T15:31:59.770Z,41.33
2018-12-05T15:34:47.241Z,53.50
2018-12-05T15:37:35.226Z,50.73
2018-12-05T15:40:26.681Z,41.10
2018-12-05T15:43:12.667Z,51.37
2018-12-05T15:46:03.657Z,51.73
2018-12-05T15:48:51.087Z,49.03
2018-12-05T15:51:32.864Z,55.27
2018-12-05T15:54:18.868Z,51.23
2018-12-05T15:57:11.217Z,62.03
2018-12-05T16:00:02.274Z,57.27
2018-12-05T16:02:51.005Z,59.90
2018-12-05T16:05:35.831Z,57.07
2018-12-05T16:08:22.771Z,52.70
2018-12-05T16:11:05.937Z,70.20
2018-12-05T16:13:49.673Z,62.30
2018-12-05T16:16:35.005Z,57.30
2018-12-05T16:19:27.965Z,54.10
2018-12-05T16:22:07.518Z,60.07
2018-12-05T16:24:56.262Z,54.30
2018-12-05T16:27:41.305Z,54.20
2018-12-05T16:30:48.987Z,54.37
2018-12-05T16:33:31.500Z,54.30
2018-12-05T16:36:15.245Z,60.77
2018-12-05T16:38:57.020Z,54.37
2018-12-05T16:41:43.901Z,62.30
2018-12-05T16:44:25.457Z,74.47
2018-12-05T16:47:06.791Z,65.90
2018-12-05T16:49:47.771Z,54.17
2018-12-05T16:52:27.637Z,53.87
2018-12-05T16:55:27.244Z,60.57
2018-12-05T16:58:06.606Z,69.73
2018-12-05T17:00:45.674Z,65.23
2018-12-05T17:03:26.924Z,66.20
2018-12-05T17:06:06.207Z,67.67
2018-12-05T17:08:53.256Z,68.50
2018-12-05T17:11:34.376Z,67.13
2018-12-05T17:14:15.205Z,71.00
2018-12-05T17:16:57.708Z,82.87
2018-12-05T17:19:36.762Z,88.60
2018-12-05T17:22:16.828Z,78.70
2018-12-05T17:24:57.572Z,78.37
2018-12-05T17:27:34.900Z,88.40
2018-12-05T17:30:15.914Z,89.87
2018-12-05T17:32:54.516Z,91.20
2018-12-05T17:35:34.414Z,79.20
2018-12-05T17:38:14.592Z,78.10
2018-12-05T17:43:35.764Z,88.80
2018-12-05T17:48:54.143Z,83.57
2018-12-05T17:51:34.972Z,85.73
2018-12-05T17:54:14.925Z,87.40
2018-12-05T17:56:57.674Z,86.50
2018-12-05T17:59:35.403Z,89.87
2018-12-05T18:02:19.952Z,84.80
2018-12-05T18:05:06.642Z,79.00
2018-12-05T18:07:46.732Z,81.63
2018-12-05T18:10:25.679Z,85.50
2018-12-05T18:13:04.015Z,89.53
2018-12-05T18:15:44.120Z,85.30
2018-12-05T18:18:22.764Z,86.83
2018-12-05T18:20:59.655Z,79.50
2018-12-05T18:23:40.123Z,82.00
2018-12-05T18:26:18.493Z,80.17
2018-12-05T18:28:55.630Z,86.13
2018-12-05T18:31:32.738Z,91.40
2018-12-05T18:34:09.693Z,75.07
2018-12-05T18:36:49.301Z,82.83
2018-12-05T18:39:27.383Z,96.07
2018-12-05T18:42:04.525Z,90.10
2018-12-05T18:47:23.778Z,87.53
2018-12-05T18:50:02.068Z,94.87
2018-12-05T18:52:40.392Z,103.37
2018-12-05T18:55:18.993Z,83.20
2018-12-05T18:57:56.045Z,98.60
2018-12-05T19:00:34.282Z,91.13
2018-12-05T19:03:14.436Z,90.63
2018-12-05T19:05:52.205Z,85.93
2018-12-05T19:08:34.313Z,93.87
2018-12-05T19:11:14.956Z,96.40
2018-12-05T19:13:55.650Z,87.03
2018-12-05T19:16:33.203Z,81.13
2018-12-05T19:19:12.136Z,82.97
2018-12-05T19:21:50.677Z,82.50
2018-12-05T19:24:29.232Z,88.63
2018-12-05T19:27:11.335Z,77.73
2018-12-05T19:29:49.739Z,96.33
2018-12-05T19:32:27.226Z,90.93
2018-12-05T19:35:04.289Z,89.57
2018-12-05T19:37:42.871Z,86.00
2018-12-05T19:40:22.573Z,101.80
2018-12-05T19:43:04.692Z,97.13
2018-12-05T19:45:50.933Z,98.37
2018-12-05T19:48:35.730Z,84.97
2018-12-05T19:51:14.751Z,84.97
2018-12-05T19:53:52.352Z,95.23
2018-12-05T19:56:30.625Z,92.23
2018-12-05T19:59:09.899Z,97.87
2018-12-05T20:01:47.377Z,94.83
2018-12-05T20:04:25.183Z,107.97
2018-12-05T20:07:03.715Z,88.87
2018-12-05T20:09:41.349Z,100.20
2018-12-05T20:12:20.231Z,93.23
2018-12-05T20:15:01.701Z,88.80
2018-12-05T20:17:38.936Z,92.90
2018-12-05T20:20:17.157Z,95.07
2018-12-05T20:22:55.583Z,103.20
2018-12-05T20:25:33.876Z,94.20
2018-12-05T20:28:12.264Z,80.23
2018-12-05T20:30:49.397Z,87.30
2018-12-05T20:33:27.691Z,99.43
2018-12-05T20:36:06.835Z,94.93
2018-12-05T20:38:44.117Z,91.60
2018-12-05T20:41:22.938Z,94.17
2018-12-05T20:43:59.507Z,91.60
2018-12-05T20:46:37.346Z,84.30
2018-12-05T20:49:14.477Z,98.40
2018-12-05T20:51:54.186Z,94.43
2018-12-05T20:54:30.697Z,84.07
2018-12-05T20:57:09.566Z,95.27
2018-12-05T20:59:48.759Z,84.80
2018-12-05T21:02:27.173Z,105.10
2018-12-05T21:05:06.662Z,101.63
2018-12-05T21:07:42.725Z,91.33
2018-12-05T21:10:21.569Z,96.10
2018-12-05T21:12:58.737Z,92.30
2018-12-05T21:15:41.196Z,89.53
2018-12-05T21:18:18.434Z,88.13
2018-12-05T21:20:55.740Z,83.77
2018-12-05T21:23:33.390Z,92.33
2018-12-05T21:26:09.401Z,97.03
2018-12-05T21:28:46.299Z,98.50
2018-12-05T21:31:23.429Z,94.63
2018-12-05T21:34:01.856Z,83.50
2018-12-05T21:36:38.928Z,88.37
2018-12-05T21:39:15.606Z,97.40
2018-12-05T21:41:54.108Z,90.30
2018-12-05T21:44:32.394Z,84.50
2018-12-05T21:47:09.748Z,93.60
2018-12-05T21:49:48.745Z,104.40
2018-12-05T21:52:24.885Z,92.30
2018-12-05T21:55:01.265Z,94.87
2018-12-05T21:57:37.570Z,107.23
2018-12-05T22:00:18.193Z,100.87
2018-12-05T22:02:58.252Z,101.47
2018-12-05T22:05:34.387Z,99.90
2018-12-05T22:08:13.049Z,92.17
2018-12-05T22:10:50.349Z,92.90
2018-12-05T22:13:28.944Z,100.90
2018-12-05T22:16:08.641Z,86.63
2018-12-05T22:21:33.635Z,87.93
2018-12-05T22:26:55.374Z,107.87
2018-12-05T22:29:32.568Z,85.27
2018-12-05T22:32:11.245Z,100.53
2018-12-05T22:34:47.665Z,99.40
2018-12-05T22:37:25.918Z,91.43
2018-12-05T22:40:03.411Z,94.83
2018-12-05T22:42:40.654Z,93.83
2018-12-05T22:45:16.850Z,86.13
2018-12-05T22:47:56.405Z,87.73
2018-12-05T22:50:32.878Z,95.83
2018-12-05T22:53:09.160Z,92.20
2018-12-05T22:55:44.958Z,91.07
2018-12-05T22:58:24.947Z,88.43
2018-12-05T23:01:05.296Z,101.87
2018-12-05T23:03:45.718Z,109.23
2018-12-05T23:06:22.494Z,103.17
2018-12-05T23:11:55.111Z,84.63
2018-12-05T23:14:35.709Z,97.10
2018-12-05T23:17:13.816Z,84.53
2018-12-05T23:19:51.919Z,88.83
2018-12-05T23:22:28.428Z,98.47
2018-12-05T23:25:05.968Z,111.43
2018-12-05T23:27:42.016Z,91.77
2018-12-05T23:30:20.778Z,67.63
2018-12-05T23:33:02.636Z,114.37
2018-12-05T23:35:44.187Z,95.00
2018-12-05T23:38:22.483Z,214.50
2018-12-05T23:41:01.460Z,81.03
2018-12-05T23:43:38.927Z,90.20
2018-12-05T23:46:20.011Z,102.10
2018-12-05T23:48:57.521Z,96.03
2018-12-05T23:51:33.720Z,87.87
2018-12-05T23:54:09.425Z,88.63
2018-12-05T23:56:50.765Z,85.80
2018-12-05T23:59:30.081Z,82.53
